עמוד ראשי
METAR-TAF:

METAR-TAF

שדות תעופה :

Killarney, אירלנד

קו רוחב: 52-10-51N, קו אורך: 9-31-26W, גובה: 34מטר

תצפית מזג אוויר נוכחית

הדו"ח נערך לפני 4 שעות ו 31דקות, בשעה 16:30 UTC
רוח 7קשר מכיוון מערב/דרום-מערב, משתנה בין דרום-מערב ו מערב/צפון-מערב
טמפרטורת 20 צלסיוס
לחות 73%
לחץ 1019 hPa
ראות 10 קילומטר או יותר
מעט עננים בגובה 2700רגל
עננים בינוניים בגובה 4200רגל

METAR: EIKY 231630Z 25007KT 220V300 9999 FEW027 BKN042 20/15 Q1019

זמן: 22:01 (21:01 UTC)

תחזית

הדו"ח נערך לפני 4 שעות ו 1דקות, בשעה 17:00 UTC
תחזית בתוקף מ 23 ב 18 UTC עד 24 ב 03 UTC
רוח 7קשר מכיוון מערב/דרום-מערב
ראות 10 קילומטר או יותר
עננים בינוניים בגובה 2200רגל
עננים בינוניים בגובה 3000רגל
הסתברות 40% :
זמנית מ -
23 ב 20 UTC עד 23 ב 23 UTC
עננים בינוניים בגובה 1000רגל
זמנית מ -
23 ב 23 UTC עד 24 ב 03 UTC
ראות: 4000מטר
עננים בינוניים בגובה 600רגל
טפטוף קל, אד,

TAF: EIKY 231700Z 2318/2403 25007KT 9999 BKN022 BKN030 PROB40 TEMPO 2320/2323 BKN010 TEMPO 2323/2403 4000 -DZ BR BKN006

תצפיות ותחזיות מזג אוויר לגבי יותר מ- 4,000 שדות תעופה ברחבי העולם. דוחות METAR ו- TAF.

התחנות הזמינות מסומנות בנקודות צהובות ואדומות על גבי המפה.

העבר את העכבר לנקודה הצבעונית על מנת לראות את שם התחנה.

לאחר מכן, לחץ כדי לראות את תוכן ואת תחזיות מזג האוויר.

כדי לשנות את המפה: לחץ על הכפתורים הירוקים עם הפלוס השחור כדי להתקרב; על הכפתור הירוק עם המקף כדי להתרחק; או בחיצים הירוקים למפות סמוכות.


METAR-TAF: